createdAt,value
2022-11-19T00:00:31.062Z,9.80
2022-11-19T00:02:59.629Z,9.80
2022-11-19T00:05:26.741Z,9.80
2022-11-19T00:07:56.755Z,9.80
2022-11-19T00:10:23.743Z,9.80
2022-11-19T00:12:56.647Z,9.80
2022-11-19T00:15:31.535Z,9.80
2022-11-19T00:18:00.582Z,9.70
2022-11-19T00:20:28.871Z,9.70
2022-11-19T00:23:00.198Z,9.70
2022-11-19T00:25:30.180Z,9.70
2022-11-19T00:27:58.037Z,9.70
2022-11-19T00:30:46.941Z,9.80
2022-11-19T00:33:13.511Z,9.80
2022-11-19T00:35:46.565Z,9.80
2022-11-19T00:38:13.728Z,9.80
2022-11-19T00:40:43.333Z,9.70
2022-11-19T00:43:32.362Z,9.70
2022-11-19T00:45:59.293Z,9.60
2022-11-19T00:48:27.538Z,9.70
2022-11-19T00:50:54.435Z,9.60
2022-11-19T00:53:21.578Z,9.60
2022-11-19T00:55:48.577Z,9.60
2022-11-19T00:58:15.673Z,9.50
2022-11-19T01:00:42.589Z,9.40
2022-11-19T01:03:20.520Z,9.40
2022-11-19T01:05:52.427Z,9.50
2022-11-19T01:08:22.721Z,9.50
2022-11-19T01:10:52.758Z,9.30
2022-11-19T01:13:34.676Z,9.40
2022-11-19T01:16:03.934Z,9.50
2022-11-19T01:18:34.236Z,9.40
2022-11-19T01:21:02.981Z,9.40
2022-11-19T01:23:40.885Z,9.30
2022-11-19T01:26:08.913Z,9.40
2022-11-19T01:28:38.892Z,9.40
2022-11-19T01:31:08.564Z,9.30
2022-11-19T01:33:36.207Z,9.30
2022-11-19T01:36:11.987Z,9.40
2022-11-19T01:38:39.102Z,9.40
2022-11-19T01:41:07.839Z,9.30
2022-11-19T01:43:43.885Z,9.30
2022-11-19T01:46:12.777Z,9.30
2022-11-19T01:48:47.357Z,9.30
2022-11-19T01:51:25.143Z,9.30
2022-11-19T01:53:54.511Z,9.20
2022-11-19T01:56:26.769Z,9.20
2022-11-19T01:59:03.400Z,9.10
2022-11-19T02:01:32.318Z,9.00
2022-11-19T02:04:07.569Z,9.00
2022-11-19T02:06:43.009Z,9.00
2022-11-19T02:09:10.103Z,9.10
2022-11-19T02:12:18.178Z,9.00
2022-11-19T02:15:11.212Z,9.00
2022-11-19T02:17:58.232Z,9.10
2022-11-19T02:20:49.244Z,8.90
2022-11-19T02:24:04.048Z,9.00
2022-11-19T02:27:25.851Z,8.80
2022-11-19T02:30:06.327Z,8.80
2022-11-19T02:32:53.008Z,8.70
2022-11-19T02:35:37.681Z,8.70
2022-11-19T02:38:15.906Z,8.80
2022-11-19T02:40:56.928Z,8.70
2022-11-19T02:43:38.073Z,8.80
2022-11-19T02:46:12.949Z,8.80
2022-11-19T02:48:43.770Z,8.80
2022-11-19T02:51:14.406Z,8.60
2022-11-19T02:53:48.934Z,8.60
2022-11-19T02:56:49.367Z,8.70
2022-11-19T02:59:42.700Z,8.80
2022-11-19T03:02:37.327Z,8.60
2022-11-19T03:05:08.295Z,8.70
2022-11-19T03:07:36.114Z,8.70
2022-11-19T03:10:08.815Z,8.60
2022-11-19T03:12:50.216Z,8.60
2022-11-19T03:15:51.885Z,8.70
2022-11-19T03:18:23.728Z,8.70
2022-11-19T03:20:56.852Z,8.60
2022-11-19T03:23:33.525Z,8.60
2022-11-19T03:26:26.712Z,8.60
2022-11-19T03:28:56.586Z,8.60
2022-11-19T03:31:26.186Z,8.60
2022-11-19T03:33:59.411Z,8.50
2022-11-19T03:36:33.498Z,8.60
2022-11-19T03:39:13.185Z,8.40
2022-11-19T03:41:48.173Z,8.40
2022-11-19T03:44:20.332Z,8.50
2022-11-19T03:46:51.590Z,8.50
2022-11-19T03:49:31.594Z,8.40
2022-11-19T03:52:03.631Z,8.30
2022-11-19T03:54:37.369Z,8.30
2022-11-19T03:57:09.900Z,8.20
2022-11-19T03:59:36.920Z,8.20
2022-11-19T04:02:09.535Z,8.00
2022-11-19T04:04:38.547Z,8.10
2022-11-19T04:07:08.408Z,8.10
2022-11-19T04:09:35.832Z,8.00
2022-11-19T04:12:03.548Z,8.00
2022-11-19T04:14:33.537Z,7.90
2022-11-19T04:17:00.618Z,7.90
2022-11-19T04:19:28.665Z,7.90
2022-11-19T04:21:56.980Z,8.00
2022-11-19T04:24:26.886Z,7.90
2022-11-19T04:26:57.448Z,7.70
2022-11-19T04:29:27.553Z,7.80
2022-11-19T04:32:00.552Z,7.80
2022-11-19T04:34:27.450Z,7.90
2022-11-19T04:36:56.047Z,7.80
2022-11-19T04:39:32.145Z,7.70
2022-11-19T04:42:02.029Z,7.70
2022-11-19T04:44:31.889Z,7.60
2022-11-19T04:46:59.765Z,7.60
2022-11-19T04:49:30.008Z,7.60
2022-11-19T04:52:04.632Z,7.50
2022-11-19T04:54:31.568Z,7.50
2022-11-19T04:57:01.869Z,7.50
2022-11-19T04:59:37.052Z,7.50
2022-11-19T05:02:04.121Z,7.50
2022-11-19T05:04:40.005Z,7.40
2022-11-19T05:07:08.496Z,7.30
2022-11-19T05:09:35.514Z,7.30
2022-11-19T05:12:02.637Z,7.40
2022-11-19T05:14:30.707Z,7.30
2022-11-19T05:16:58.138Z,7.30
2022-11-19T05:19:30.131Z,7.30
2022-11-19T05:21:59.329Z,7.20
2022-11-19T05:24:30.046Z,7.20
2022-11-19T05:27:03.500Z,7.20
2022-11-19T05:29:30.483Z,7.20
2022-11-19T05:31:57.671Z,7.20
2022-11-19T05:34:24.627Z,7.20
2022-11-19T05:36:51.709Z,7.20
2022-11-19T05:39:22.053Z,7.20
2022-11-19T05:42:00.242Z,7.10
2022-11-19T05:44:27.299Z,7.10
2022-11-19T05:46:59.142Z,7.00
2022-11-19T05:49:32.412Z,7.00
2022-11-19T05:52:08.569Z,6.90
2022-11-19T05:54:35.566Z,6.80
2022-11-19T05:57:05.710Z,6.70
2022-11-19T05:59:44.039Z,6.70
2022-11-19T06:02:25.126Z,6.70
2022-11-19T06:05:01.267Z,6.60
2022-11-19T06:07:34.599Z,6.60
2022-11-19T06:10:05.609Z,6.60
2022-11-19T06:12:34.046Z,6.60
2022-11-19T06:15:02.282Z,6.50
2022-11-19T06:17:29.448Z,6.50
2022-11-19T06:19:56.342Z,6.60
2022-11-19T06:22:23.869Z,6.50
2022-11-19T06:24:50.761Z,6.50
2022-11-19T06:27:18.413Z,6.60
2022-11-19T06:29:46.989Z,6.60
2022-11-19T06:32:14.049Z,6.50
2022-11-19T06:34:40.980Z,6.50
2022-11-19T06:37:09.555Z,6.50
2022-11-19T06:39:36.865Z,6.40
2022-11-19T06:42:22.729Z,6.30
2022-11-19T06:44:51.042Z,6.30
2022-11-19T06:47:18.227Z,6.30
2022-11-19T06:49:45.248Z,6.40
2022-11-19T06:52:12.202Z,6.40
2022-11-19T06:54:43.016Z,6.40
2022-11-19T06:57:10.369Z,6.30
2022-11-19T06:59:38.963Z,6.40
2022-11-19T07:02:08.312Z,6.30
2022-11-19T07:04:35.341Z,6.20
2022-11-19T07:07:02.514Z,6.10
2022-11-19T07:09:29.564Z,6.10
2022-11-19T07:11:56.508Z,6.20
2022-11-19T07:14:23.841Z,6.20
2022-11-19T07:16:50.784Z,6.20
2022-11-19T07:19:19.479Z,6.20
2022-11-19T07:21:46.889Z,6.10
2022-11-19T07:24:27.538Z,6.00
2022-11-19T07:26:56.257Z,6.00
2022-11-19T07:29:23.526Z,6.10
2022-11-19T07:31:53.475Z,6.10
2022-11-19T07:34:21.983Z,6.00
2022-11-19T07:36:50.208Z,6.10
2022-11-19T07:39:18.287Z,6.00
2022-11-19T07:42:10.362Z,6.00
2022-11-19T07:44:39.599Z,6.30
2022-11-19T07:47:07.271Z,6.30
2022-11-19T07:49:35.555Z,6.30
2022-11-19T07:52:05.512Z,6.30
2022-11-19T07:54:32.533Z,6.40
2022-11-19T07:57:00.166Z,6.30
2022-11-19T07:59:27.084Z,6.30
2022-11-19T08:01:54.114Z,6.30
2022-11-19T08:04:23.184Z,6.20
2022-11-19T08:06:51.481Z,6.10
2022-11-19T08:09:21.939Z,5.90
2022-11-19T08:11:52.191Z,5.90
2022-11-19T08:14:25.652Z,5.80
2022-11-19T08:17:11.287Z,5.90
2022-11-19T08:19:41.272Z,5.80
2022-11-19T08:22:11.688Z,5.80
2022-11-19T08:24:38.772Z,5.80
2022-11-19T08:27:06.336Z,5.60
2022-11-19T08:29:33.249Z,5.60
2022-11-19T08:32:00.242Z,5.70
2022-11-19T08:34:27.346Z,5.60
2022-11-19T08:36:57.493Z,5.50
2022-11-19T08:39:33.229Z,5.50
2022-11-19T08:42:19.156Z,5.40
2022-11-19T08:44:46.151Z,5.40
2022-11-19T08:47:13.175Z,5.40
2022-11-19T08:49:40.119Z,5.50
2022-11-19T08:52:07.068Z,5.30
2022-11-19T08:54:35.397Z,5.40
2022-11-19T08:57:02.481Z,5.40
2022-11-19T08:59:32.226Z,5.50
2022-11-19T09:01:59.365Z,5.60
2022-11-19T09:04:26.328Z,5.50
2022-11-19T09:06:55.614Z,5.50
2022-11-19T09:09:22.590Z,5.40
2022-11-19T09:11:56.621Z,5.40
2022-11-19T09:14:29.527Z,5.30
2022-11-19T09:16:59.185Z,5.30
2022-11-19T09:19:29.049Z,5.40
2022-11-19T09:21:56.119Z,5.40
2022-11-19T09:24:28.238Z,5.40
2022-11-19T09:27:01.959Z,5.60
2022-11-19T09:29:29.227Z,5.50
2022-11-19T09:31:56.250Z,5.40
2022-11-19T09:34:23.242Z,5.50
2022-11-19T09:36:51.552Z,5.60
2022-11-19T09:39:18.516Z,5.70
2022-11-19T09:41:52.007Z,5.70
2022-11-19T09:44:45.522Z,5.70
2022-11-19T09:47:27.224Z,5.80
2022-11-19T09:50:05.776Z,5.80
2022-11-19T09:52:36.547Z,5.80
2022-11-19T09:55:04.421Z,5.70
2022-11-19T09:57:39.826Z,5.80
2022-11-19T10:00:19.458Z,5.90
2022-11-19T10:02:46.807Z,6.00
2022-11-19T10:05:16.096Z,6.10
2022-11-19T10:07:54.006Z,6.10
2022-11-19T10:10:34.666Z,6.10
2022-11-19T10:13:21.776Z,6.00
2022-11-19T10:16:17.366Z,6.00
2022-11-19T10:18:59.905Z,5.90
2022-11-19T10:21:34.009Z,5.90
2022-11-19T10:24:18.243Z,5.90
2022-11-19T10:26:52.770Z,5.90
2022-11-19T10:29:23.559Z,6.00
2022-11-19T10:31:52.592Z,6.00
2022-11-19T10:34:26.890Z,6.10
2022-11-19T10:36:59.071Z,6.00
2022-11-19T10:39:35.388Z,5.90
2022-11-19T10:42:14.361Z,5.80
2022-11-19T10:44:46.865Z,5.90
2022-11-19T10:47:20.703Z,6.00
2022-11-19T10:49:53.873Z,5.90
2022-11-19T10:52:32.212Z,5.80
2022-11-19T10:55:05.594Z,5.90
2022-11-19T10:57:33.913Z,5.80
2022-11-19T11:00:01.841Z,5.80
2022-11-19T11:02:40.303Z,5.80
2022-11-19T11:05:15.026Z,5.80
2022-11-19T11:07:50.739Z,5.80
2022-11-19T11:10:36.509Z,5.80
2022-11-19T11:13:35.001Z,5.80
2022-11-19T11:16:14.188Z,5.90
2022-11-19T11:18:46.235Z,5.90
2022-11-19T11:21:32.168Z,5.90
2022-11-19T11:24:00.398Z,5.90
2022-11-19T11:26:29.268Z,5.80
2022-11-19T11:29:03.286Z,5.90
2022-11-19T11:31:43.318Z,5.90
2022-11-19T11:34:31.389Z,5.90
2022-11-19T11:37:03.389Z,5.90
2022-11-19T11:39:37.892Z,5.80
2022-11-19T11:42:16.051Z,5.70
2022-11-19T11:44:52.217Z,5.80
2022-11-19T11:47:22.627Z,5.90
2022-11-19T11:50:03.641Z,5.90
2022-11-19T11:52:37.320Z,5.90
2022-11-19T11:55:07.336Z,5.80
2022-11-19T11:57:55.035Z,5.90
2022-11-19T12:00:41.203Z,5.80
2022-11-19T12:03:18.690Z,5.90
2022-11-19T12:06:01.140Z,5.80
2022-11-19T12:08:46.012Z,5.80
2022-11-19T12:11:24.943Z,5.90
2022-11-19T12:14:08.029Z,5.90
2022-11-19T12:17:10.036Z,5.90
2022-11-19T12:20:00.945Z,5.80
2022-11-19T12:22:47.896Z,5.80
2022-11-19T12:25:32.281Z,5.90
2022-11-19T12:28:37.927Z,5.90
2022-11-19T12:31:21.360Z,5.90
2022-11-19T12:34:08.218Z,5.90
2022-11-19T12:36:48.543Z,5.90
2022-11-19T12:39:50.462Z,5.90
2022-11-19T12:42:52.498Z,5.90
2022-11-19T12:45:42.146Z,5.90
2022-11-19T12:48:56.444Z,5.90
2022-11-19T12:51:38.051Z,5.80
2022-11-19T12:54:44.680Z,5.80
2022-11-19T12:57:38.762Z,5.70
2022-11-19T13:00:13.571Z,5.60
2022-11-19T13:02:50.707Z,5.60
2022-11-19T13:05:21.804Z,5.70
2022-11-19T13:07:55.620Z,5.70
2022-11-19T13:10:34.791Z,5.80
2022-11-19T13:13:15.324Z,5.70
2022-11-19T13:15:48.501Z,5.70
2022-11-19T13:18:20.843Z,5.60
2022-11-19T13:20:52.694Z,5.70
2022-11-19T13:23:31.475Z,5.70
2022-11-19T13:26:10.793Z,5.60
2022-11-19T13:28:44.480Z,5.60
2022-11-19T13:31:29.745Z,5.60
2022-11-19T13:34:08.074Z,5.60
2022-11-19T13:36:41.607Z,5.60
2022-11-19T13:39:23.153Z,5.60
2022-11-19T13:42:13.729Z,5.60
2022-11-19T13:44:44.172Z,5.60
2022-11-19T13:47:20.463Z,5.70
2022-11-19T13:49:55.918Z,5.70
2022-11-19T13:52:30.140Z,5.50
2022-11-19T13:55:23.200Z,5.50
2022-11-19T13:57:51.499Z,5.60
2022-11-19T14:00:27.681Z,5.50
2022-11-19T14:03:21.327Z,5.50
2022-11-19T14:06:28.489Z,5.50
2022-11-19T14:09:15.780Z,5.50
2022-11-19T14:12:25.129Z,5.50
2022-11-19T14:15:41.651Z,5.50
2022-11-19T14:18:48.994Z,5.50
2022-11-19T14:22:20.365Z,5.50
2022-11-19T14:25:27.420Z,5.50
2022-11-19T14:28:43.924Z,5.50
2022-11-19T14:31:13.059Z,5.50
2022-11-19T14:34:01.271Z,5.50
2022-11-19T14:36:55.138Z,5.50
2022-11-19T14:39:26.839Z,5.50
2022-11-19T14:42:14.638Z,5.40
2022-11-19T14:44:42.737Z,5.40
2022-11-19T14:47:38.008Z,5.40
2022-11-19T14:50:10.505Z,5.40
2022-11-19T14:52:52.520Z,5.40
2022-11-19T14:55:30.687Z,5.40
2022-11-19T14:58:14.126Z,5.40
2022-11-19T15:00:42.236Z,5.40
2022-11-19T15:03:21.371Z,5.40
2022-11-19T15:05:49.368Z,5.40
2022-11-19T15:08:50.877Z,5.40
2022-11-19T15:12:00.876Z,5.40
2022-11-19T15:15:03.437Z,5.40
2022-11-19T15:17:35.247Z,5.40
2022-11-19T15:20:25.986Z,5.40
2022-11-19T15:23:10.407Z,5.30
2022-11-19T15:25:51.315Z,5.30
2022-11-19T15:28:44.347Z,5.30
2022-11-19T15:31:47.485Z,5.30
2022-11-19T15:34:49.068Z,5.30
2022-11-19T15:37:42.601Z,5.30
2022-11-19T15:40:16.908Z,5.20
2022-11-19T15:42:50.133Z,5.00
2022-11-19T15:45:20.606Z,5.10
2022-11-19T15:47:52.558Z,5.10
2022-11-19T15:50:23.301Z,5.10
2022-11-19T15:53:15.413Z,5.00
2022-11-19T15:56:06.158Z,5.00
2022-11-19T15:58:39.206Z,5.00
2022-11-19T16:01:09.642Z,5.00
2022-11-19T16:03:39.163Z,5.00
2022-11-19T16:06:17.743Z,5.00
2022-11-19T16:08:52.773Z,4.90
2022-11-19T16:11:43.676Z,5.00
2022-11-19T16:14:39.395Z,5.00
2022-11-19T16:17:36.948Z,5.00
2022-11-19T16:20:22.182Z,5.10
2022-11-19T16:22:55.470Z,5.20
2022-11-19T16:25:33.751Z,5.20
2022-11-19T16:28:05.548Z,5.10
2022-11-19T16:30:46.312Z,5.00
2022-11-19T16:33:20.077Z,5.10
2022-11-19T16:35:52.584Z,5.10
2022-11-19T16:38:26.867Z,5.10
2022-11-19T16:41:14.978Z,5.00
2022-11-19T16:43:44.732Z,5.10
2022-11-19T16:46:16.674Z,5.00
2022-11-19T16:49:02.444Z,4.90
2022-11-19T16:51:36.968Z,4.80
2022-11-19T16:54:11.157Z,4.90
2022-11-19T16:56:44.895Z,5.00
2022-11-19T16:59:30.187Z,5.00
2022-11-19T17:01:59.453Z,5.10
2022-11-19T17:04:30.025Z,5.00
2022-11-19T17:06:58.881Z,5.00
2022-11-19T17:09:33.817Z,4.90
2022-11-19T17:12:17.284Z,4.90
2022-11-19T17:14:58.137Z,5.00
2022-11-19T17:17:43.683Z,5.00
2022-11-19T17:20:59.794Z,5.00
2022-11-19T17:23:32.392Z,5.10
2022-11-19T17:26:02.080Z,5.20
2022-11-19T17:28:36.204Z,5.20
2022-11-19T17:31:18.409Z,5.20
2022-11-19T17:33:54.195Z,5.20
2022-11-19T17:36:22.184Z,5.20
2022-11-19T17:38:49.622Z,5.20
2022-11-19T17:41:40.870Z,5.10
2022-11-19T17:44:31.826Z,5.10
2022-11-19T17:46:59.167Z,5.00
2022-11-19T17:49:26.106Z,5.10
2022-11-19T17:52:09.521Z,5.10
2022-11-19T17:54:47.497Z,5.10
2022-11-19T17:57:14.486Z,5.10
2022-11-19T17:59:45.702Z,5.10
2022-11-19T18:02:14.789Z,5.20
2022-11-19T18:04:50.091Z,5.10
2022-11-19T18:07:17.121Z,5.10
2022-11-19T18:09:44.811Z,5.10
2022-11-19T18:12:15.990Z,5.00
2022-11-19T18:14:45.656Z,5.10
2022-11-19T18:17:14.922Z,5.20
2022-11-19T18:19:42.087Z,5.10
2022-11-19T18:22:17.170Z,5.10
2022-11-19T18:24:44.362Z,5.10
2022-11-19T18:27:11.453Z,5.20
2022-11-19T18:29:39.097Z,5.20
2022-11-19T18:32:10.109Z,5.30
2022-11-19T18:34:40.146Z,5.30
2022-11-19T18:37:09.748Z,5.20
2022-11-19T18:39:40.105Z,5.10
2022-11-19T18:42:13.435Z,5.00
2022-11-19T18:44:46.326Z,5.10
2022-11-19T18:47:15.296Z,5.10
2022-11-19T18:49:48.515Z,5.00
2022-11-19T18:52:15.709Z,5.00
2022-11-19T18:54:43.346Z,5.00
2022-11-19T18:57:11.981Z,5.00
2022-11-19T18:59:45.012Z,5.00
2022-11-19T19:02:12.327Z,5.00
2022-11-19T19:04:46.026Z,5.00
2022-11-19T19:07:17.874Z,5.00
2022-11-19T19:09:48.637Z,5.00
2022-11-19T19:12:18.720Z,5.00
2022-11-19T19:14:47.525Z,5.00
2022-11-19T19:17:15.812Z,5.00
2022-11-19T19:19:44.169Z,5.00
2022-11-19T19:22:11.086Z,5.00
2022-11-19T19:24:38.249Z,5.00
2022-11-19T19:27:05.507Z,5.10
2022-11-19T19:29:32.486Z,5.00
2022-11-19T19:32:06.351Z,5.00
2022-11-19T19:34:33.570Z,4.90
2022-11-19T19:37:02.244Z,5.00
2022-11-19T19:39:35.201Z,5.00
2022-11-19T19:42:11.263Z,5.10
2022-11-19T19:44:41.450Z,5.00
2022-11-19T19:47:11.522Z,4.90
2022-11-19T19:49:39.229Z,4.80
2022-11-19T19:52:13.428Z,4.80
2022-11-19T19:54:43.659Z,5.00
2022-11-19T19:57:15.583Z,5.00
2022-11-19T19:59:42.704Z,5.00
2022-11-19T20:02:12.577Z,5.10
2022-11-19T20:04:44.743Z,5.20
2022-11-19T20:07:13.196Z,5.10
2022-11-19T20:09:42.934Z,5.20
2022-11-19T20:12:12.946Z,5.30
2022-11-19T20:14:43.822Z,5.20
2022-11-19T20:17:13.199Z,5.10
2022-11-19T20:19:42.261Z,5.10
2022-11-19T20:22:13.613Z,5.00
2022-11-19T20:24:40.537Z,5.00
2022-11-19T20:27:10.550Z,5.10
2022-11-19T20:29:37.607Z,5.10
2022-11-19T20:32:12.412Z,5.00
2022-11-19T20:34:39.436Z,5.00
2022-11-19T20:37:06.530Z,5.10
2022-11-19T20:39:40.338Z,5.10
2022-11-19T20:42:29.317Z,5.10
2022-11-19T20:44:56.428Z,5.00
2022-11-19T20:47:23.425Z,5.10
2022-11-19T20:49:50.390Z,5.10
2022-11-19T20:52:19.097Z,5.00
2022-11-19T20:54:49.517Z,5.00
2022-11-19T20:57:18.099Z,5.00
2022-11-19T20:59:48.444Z,4.90
2022-11-19T21:02:21.751Z,4.80
2022-11-19T21:04:51.726Z,4.90
2022-11-19T21:07:27.567Z,4.90
2022-11-19T21:09:55.954Z,4.90
2022-11-19T21:12:24.069Z,4.90
2022-11-19T21:14:55.939Z,4.90
2022-11-19T21:17:22.957Z,4.90
2022-11-19T21:19:50.030Z,4.90
2022-11-19T21:22:17.040Z,4.80
2022-11-19T21:24:53.851Z,4.90
2022-11-19T21:27:22.295Z,4.90
2022-11-19T21:29:55.242Z,4.90
2022-11-19T21:32:28.093Z,4.80
2022-11-19T21:34:55.135Z,4.80
2022-11-19T21:37:32.337Z,4.80
2022-11-19T21:39:59.294Z,4.80
2022-11-19T21:42:27.650Z,4.80
2022-11-19T21:44:54.596Z,4.80
2022-11-19T21:47:21.614Z,4.80
2022-11-19T21:49:59.221Z,4.80
2022-11-19T21:52:29.126Z,4.80
2022-11-19T21:54:59.254Z,4.80
2022-11-19T21:57:28.715Z,4.70
2022-11-19T21:59:55.832Z,4.70
2022-11-19T22:02:23.362Z,4.60
2022-11-19T22:04:50.272Z,4.60
2022-11-19T22:07:17.385Z,4.70
2022-11-19T22:09:44.401Z,4.70
2022-11-19T22:12:11.507Z,4.70
2022-11-19T22:14:40.104Z,4.80
2022-11-19T22:17:07.111Z,4.90
2022-11-19T22:19:34.082Z,5.00
2022-11-19T22:22:01.128Z,4.90
2022-11-19T22:24:28.309Z,4.90
2022-11-19T22:26:55.276Z,4.80
2022-11-19T22:29:22.486Z,4.80
2022-11-19T22:31:51.173Z,4.80
2022-11-19T22:34:18.352Z,4.70
2022-11-19T22:36:45.312Z,4.70
2022-11-19T22:39:13.528Z,4.80
2022-11-19T22:41:40.489Z,4.80
2022-11-19T22:44:07.644Z,4.70
2022-11-19T22:46:34.695Z,4.70
2022-11-19T22:49:06.517Z,4.60
2022-11-19T22:51:36.293Z,4.60
2022-11-19T22:54:03.558Z,4.50
2022-11-19T22:56:31.838Z,4.60
2022-11-19T22:58:59.013Z,4.60
2022-11-19T23:01:28.501Z,4.60
2022-11-19T23:04:01.947Z,4.60
2022-11-19T23:06:30.306Z,4.70
2022-11-19T23:09:00.555Z,4.60
2022-11-19T23:11:49.594Z,4.60
2022-11-19T23:14:18.784Z,4.60
2022-11-19T23:16:48.798Z,4.70
2022-11-19T23:19:21.502Z,4.70
2022-11-19T23:21:50.680Z,4.60
2022-11-19T23:24:17.856Z,4.70
2022-11-19T23:26:53.975Z,4.80
2022-11-19T23:29:30.983Z,4.90
2022-11-19T23:31:57.923Z,4.90
2022-11-19T23:34:24.904Z,5.00
2022-11-19T23:36:53.212Z,5.00
2022-11-19T23:39:20.397Z,5.00
2022-11-19T23:41:47.567Z,5.00
2022-11-19T23:44:14.558Z,5.00
2022-11-19T23:46:44.573Z,5.00
2022-11-19T23:49:14.702Z,4.90
2022-11-19T23:51:44.792Z,4.90
2022-11-19T23:54:14.309Z,4.90
2022-11-19T23:56:41.452Z,5.00
2022-11-19T23:59:08.658Z,5.00
